Time;durP1;ratioP1;P1;durP2;ratioP2;P2;SDS_P1;SDS_P2;PMS_P1;PMS_P2;Temp;Humidity;BMP_temperature;BMP_pressure;BME280_temperature;BME280_humidity;BME280_pressure;Samples;Min_cycle;Max_cycle;Signal;HPM_P1;HPM_P2
2022/05/15 00:01:28;;;;;;;2.58;1.05;;;;;;;17.34;41.81;99062.56;5111653;28;20070;-61
2022/05/15 00:04:13;;;;;;;2.83;0.70;;;;;;;17.35;41.28;99058.94;5113263;28;20063;-59
2022/05/15 00:06:58;;;;;;;2.55;0.70;;;;;;;17.37;41.17;99061.44;5111731;28;20078;-59
2022/05/15 00:09:43;;;;;;;1.75;0.70;;;;;;;17.31;40.74;99049.63;5113016;28;20046;-60
2022/05/15 00:12:27;;;;;;;1.30;0.60;;;;;;;17.33;41.38;99052.13;5112709;28;20032;-60
2022/05/15 00:15:12;;;;;;;2.35;0.80;;;;;;;17.32;41.35;99048.63;5112004;28;20036;-60
2022/05/15 00:17:57;;;;;;;2.35;1.00;;;;;;;17.25;42.24;99050.16;5112330;28;20482;-60
2022/05/15 00:20:42;;;;;;;2.33;0.80;;;;;;;17.20;42.00;99049.78;5111809;28;20039;-59
2022/05/15 00:23:27;;;;;;;1.35;0.70;;;;;;;17.15;42.70;99054.66;5113273;28;20067;-59
2022/05/15 00:26:12;;;;;;;2.45;0.80;;;;;;;17.13;42.55;99054.81;5101946;28;20036;-60
2022/05/15 00:28:57;;;;;;;5.63;1.20;;;;;;;17.08;43.89;99052.59;5092690;28;20094;-59
2022/05/15 00:31:42;;;;;;;1.30;0.63;;;;;;;17.00;45.14;99057.72;5091823;28;20044;-61
2022/05/15 00:34:26;;;;;;;2.97;0.80;;;;;;;17.05;48.74;99054.63;5090835;28;20036;-60
2022/05/15 00:37:11;;;;;;;1.65;0.70;;;;;;;17.09;48.02;99056.88;5091985;28;20048;-61
2022/05/15 00:39:57;;;;;;;1.60;0.50;;;;;;;17.15;48.76;99063.44;5092506;28;20111;-60
2022/05/15 00:42:42;;;;;;;1.13;0.65;;;;;;;17.09;45.70;99056.88;5105677;28;20032;-60
2022/05/15 00:45:28;;;;;;;3.53;1.13;;;;;;;16.95;43.31;99058.13;5063023;28;20105;-60
2022/05/15 00:48:12;;;;;;;3.25;1.00;;;;;;;16.75;43.19;99068.69;5091103;28;20032;-60
2022/05/15 00:51:01;;;;;;;2.70;0.70;;;;;;;16.68;43.12;99062.28;5105346;28;20114;-61
2022/05/15 00:53:48;;;;;;;1.52;0.80;;;;;;;16.70;43.27;99051.56;5090888;28;20055;-60
2022/05/15 00:56:37;;;;;;;2.03;0.70;;;;;;;16.67;43.67;99059.78;5090852;28;20099;-60
2022/05/15 00:59:27;;;;;;;4.95;0.85;;;;;;;16.58;43.79;99058.81;5105387;28;20090;-60
2022/05/15 01:02:13;;;;;;;2.53;0.80;;;;;;;16.49;43.49;99060.44;5091633;28;20040;-60
2022/05/15 01:04:58;;;;;;;3.17;0.85;;;;;;;16.47;43.00;99063.22;5091101;28;20036;-60
2022/05/15 01:07:43;;;;;;;1.48;0.82;;;;;;;16.50;44.55;99062.09;5092073;28;20331;-60
2022/05/15 01:10:29;;;;;;;3.13;1.05;;;;;;;16.59;43.57;99061.31;5092661;28;20036;-60
2022/05/15 01:13:17;;;;;;;2.58;0.70;;;;;;;16.58;44.29;99056.16;5093923;28;20181;-61
2022/05/15 01:16:03;;;;;;;1.30;0.90;;;;;;;16.46;44.52;99060.72;5077018;28;20071;-59
2022/05/15 01:18:49;;;;;;;2.85;0.80;;;;;;;16.42;43.24;99061.97;5076805;28;20127;-61
2022/05/15 01:21:38;;;;;;;2.25;0.80;;;;;;;16.41;43.25;99058.50;5076657;28;20097;-60
2022/05/15 01:24:22;;;;;;;1.98;0.70;;;;;;;16.33;43.43;99059.16;5090768;28;20113;-60
2022/05/15 01:27:11;;;;;;;1.02;0.68;;;;;;;16.12;44.71;99062.69;5090817;28;20044;-60
2022/05/15 01:29:57;;;;;;;1.15;0.70;;;;;;;15.91;46.22;99068.03;5076473;28;20064;-61
2022/05/15 01:32:42;;;;;;;2.92;0.98;;;;;;;15.86;47.21;99070.25;5093348;28;20067;-61
2022/05/15 01:35:27;;;;;;;1.80;0.80;;;;;;;15.82;48.28;99067.03;5094484;28;20398;-60
2022/05/15 01:38:13;;;;;;;2.72;1.00;;;;;;;15.77;48.83;99069.22;5094395;28;20090;-60
2022/05/15 01:40:58;;;;;;;1.80;0.80;;;;;;;15.78;48.57;99068.25;5094383;28;20109;-60
2022/05/15 01:43:43;;;;;;;2.45;0.50;;;;;;;16.05;49.50;99064.22;5094435;28;20109;-60
2022/05/15 01:46:30;;;;;;;3.20;0.98;;;;;;;16.20;46.89;99067.34;5080059;28;20040;-61
2022/05/15 01:49:18;;;;;;;1.50;0.52;;;;;;;16.18;49.70;99065.78;5093942;28;20536;-60
2022/05/15 01:52:04;;;;;;;0.95;0.57;;;;;;;16.20;51.36;99066.50;5094077;28;20044;-60
2022/05/15 01:54:49;;;;;;;1.27;0.70;;;;;;;16.32;52.23;99069.88;5095168;28;20423;-60
2022/05/15 01:57:34;;;;;;;3.72;0.88;;;;;;;16.29;46.88;99063.03;5094052;28;20753;-61
2022/05/15 02:00:23;;;;;;;3.95;0.80;;;;;;;16.09;47.85;99067.44;5094067;28;20043;-59
2022/05/15 02:03:08;;;;;;;3.13;0.90;;;;;;;15.87;47.42;99067.47;5093819;28;20040;-60
2022/05/15 02:05:53;;;;;;;2.80;0.90;;;;;;;15.67;47.41;99071.81;5093718;28;20044;-59
2022/05/15 02:08:38;;;;;;;2.38;0.80;;;;;;;15.64;48.68;99058.88;5093765;28;20040;-60
2022/05/15 02:11:24;;;;;;;2.08;0.80;;;;;;;15.65;48.44;99065.84;5093930;28;20047;-60
2022/05/15 02:14:11;;;;;;;3.47;0.77;;;;;;;15.55;48.44;99071.06;5093902;28;20040;-60
2022/05/15 02:16:56;;;;;;;3.80;0.95;;;;;;;15.51;50.14;99073.13;5095007;28;20139;-60
2022/05/15 02:19:41;;;;;;;1.92;0.75;;;;;;;15.43;50.91;99065.00;5094063;28;20039;-60
2022/05/15 02:22:26;;;;;;;1.80;1.13;;;;;;;15.23;50.15;99064.03;5080207;28;20060;-60
2022/05/15 02:25:14;;;;;;;1.58;0.88;;;;;;;15.04;51.28;99068.22;5073428;28;20048;-59
2022/05/15 02:28:00;;;;;;;2.17;1.05;;;;;;;15.01;51.92;99063.19;5073148;28;20048;-60
2022/05/15 02:30:49;;;;;;;2.65;0.70;;;;;;;14.90;52.43;99064.91;5073279;28;20472;-60
2022/05/15 02:33:35;;;;;;;1.90;1.00;;;;;;;14.90;52.01;99064.91;5087315;28;20045;-60
2022/05/15 02:36:21;;;;;;;1.63;0.70;;;;;;;14.93;52.93;99063.81;5106363;28;20047;-59
2022/05/15 02:39:08;;;;;;;1.40;0.60;;;;;;;14.93;52.66;99062.97;5079021;28;20047;-59
2022/05/15 02:41:52;;;;;;;2.65;0.82;;;;;;;14.91;54.07;99063.09;5094317;28;20036;-59
2022/05/15 02:44:37;;;;;;;3.85;1.00;;;;;;;14.82;51.81;99067.31;5093755;28;20040;-59
2022/05/15 02:47:24;;;;;;;3.90;1.20;;;;;;;14.80;51.81;99060.50;5094114;28;20089;-60
2022/05/15 02:53:12;;;;;;;2.22;0.88;;;;;;;14.65;52.38;99069.53;5093522;28;20044;-60
2022/05/15 02:55:56;;;;;;;2.28;1.05;;;;;;;14.73;53.75;99065.41;5093413;28;20367;-59
2022/05/15 02:58:41;;;;;;;1.67;0.80;;;;;;;14.63;53.80;99068.81;5093133;28;20040;-59
2022/05/15 03:01:26;;;;;;;1.40;0.80;;;;;;;14.68;51.21;99064.94;5093262;28;20061;-59
2022/05/15 03:04:12;;;;;;;2.17;0.82;;;;;;;14.72;51.88;99063.75;5094219;28;20062;-61
2022/05/15 03:06:57;;;;;;;1.73;0.80;;;;;;;14.69;54.49;99070.09;5065194;28;20047;-59
2022/05/15 03:09:42;;;;;;;3.42;0.77;;;;;;;14.68;51.00;99070.22;5092947;28;20044;-60
2022/05/15 03:12:27;;;;;;;2.28;0.93;;;;;;;14.84;50.30;99065.41;5094345;28;20420;-60
2022/05/15 03:15:14;;;;;;;4.20;0.75;;;;;;;14.88;50.13;99071.28;5094527;28;20048;-59
2022/05/15 03:18:00;;;;;;;4.93;0.88;;;;;;;14.97;49.73;99069.66;5093363;28;20040;-60
2022/05/15 03:20:44;;;;;;;2.90;1.08;;;;;;;15.08;49.61;99066.16;5093840;28;20036;-59
2022/05/15 03:23:29;;;;;;;1.30;1.00;;;;;;;14.99;50.50;99071.22;5092785;28;20032;-59
2022/05/15 03:26:14;;;;;;;2.58;0.90;;;;;;;15.05;50.76;99067.22;5092818;28;20467;-59
2022/05/15 03:28:58;;;;;;;0.90;0.80;;;;;;;15.09;51.46;99075.75;5094100;28;20044;-59
2022/05/15 03:31:43;;;;;;;3.22;0.80;;;;;;;15.19;50.35;99079.31;5078178;28;20092;-59
2022/05/15 03:34:28;;;;;;;4.97;0.88;;;;;;;15.22;50.14;99079.03;5092476;28;20028;-59
2022/05/15 03:37:13;;;;;;;2.35;0.90;;;;;;;15.19;51.60;99079.31;5093357;28;20378;-60
2022/05/15 03:39:57;;;;;;;3.28;0.90;;;;;;;15.18;49.87;99080.25;5092096;28;20075;-59
2022/05/15 03:42:43;;;;;;;1.95;0.77;;;;;;;15.21;50.17;99081.81;5093576;28;20067;-60
2022/05/15 03:45:29;;;;;;;3.70;0.80;;;;;;;15.33;50.74;99079.94;5092394;28;20097;-60
2022/05/15 03:48:14;;;;;;;2.53;1.42;;;;;;;15.19;51.68;99084.56;5093465;28;20031;-59
2022/05/15 03:50:59;;;;;;;7.30;0.85;;;;;;;15.11;53.58;99085.19;5091908;28;20036;-60
2022/05/15 03:53:44;;;;;;;2.00;1.42;;;;;;;15.02;53.41;99080.69;5092108;28;20047;-60
2022/05/15 03:59:36;;;;;;;2.03;0.77;;;;;;;15.18;50.51;99093.44;5092816;28;20051;-59
2022/05/15 04:02:21;;;;;;;1.75;0.80;;;;;;;15.22;52.75;99091.38;5091575;28;20058;-59
2022/05/15 04:05:08;;;;;;;4.38;1.05;;;;;;;15.31;50.83;99092.44;5091778;28;20089;-59
2022/05/15 04:07:52;;;;;;;2.60;1.00;;;;;;;15.37;52.47;99094.56;5091667;28;20055;-60
2022/05/15 04:10:37;;;;;;;2.60;1.02;;;;;;;15.49;51.61;99090.03;5091941;28;20036;-61
2022/05/15 04:13:23;;;;;;;2.58;0.95;;;;;;;15.59;49.94;99098.00;5077122;28;20044;-59
2022/05/15 04:16:09;;;;;;;1.13;0.70;;;;;;;15.68;50.61;99096.41;5077116;28;20386;-59
2022/05/15 04:18:55;;;;;;;2.22;1.20;;;;;;;15.85;50.20;99100.25;5092514;28;20097;-59
2022/05/15 04:21:40;;;;;;;4.78;1.13;;;;;;;15.71;51.29;99101.44;5091503;28;20040;-58
2022/05/15 04:24:25;;;;;;;4.50;1.40;;;;;;;15.54;52.80;99101.06;5092342;28;20036;-60
2022/05/15 04:27:10;;;;;;;2.85;1.10;;;;;;;15.50;53.96;99104.94;5076943;28;20114;-60
2022/05/15 04:29:55;;;;;;;2.50;1.20;;;;;;;15.67;53.38;99106.13;5091214;28;20108;-60
2022/05/15 04:32:41;;;;;;;4.28;1.70;;;;;;;15.75;54.15;99101.03;5091180;28;20039;-59
2022/05/15 04:35:26;;;;;;;4.68;1.35;;;;;;;15.88;54.17;99107.91;5090995;28;20039;-60
2022/05/15 04:38:11;;;;;;;2.60;1.13;;;;;;;16.07;50.35;99103.72;5092025;28;20043;-61
2022/05/15 04:40:56;;;;;;;3.70;1.10;;;;;;;16.28;50.86;99103.66;5090826;28;20056;-59
2022/05/15 04:43:40;;;;;;;3.78;0.95;;;;;;;16.33;53.30;99103.25;5090632;28;20104;-60
2022/05/15 04:46:29;;;;;;;2.03;1.05;;;;;;;16.32;55.07;99107.69;5091721;28;20448;-60
2022/05/15 04:49:13;;;;;;;4.00;1.27;;;;;;;16.30;54.46;99107.03;5090830;28;20501;-59
2022/05/15 04:51:58;;;;;;;3.28;1.50;;;;;;;16.19;54.69;99115.88;5090759;28;20371;-60
2022/05/15 04:54:43;;;;;;;3.03;1.08;;;;;;;16.22;55.30;99114.78;5091836;28;20040;-59
2022/05/15 04:57:28;;;;;;;6.00;1.20;;;;;;;16.11;56.14;99121.81;5091549;28;20047;-60
2022/05/15 05:00:17;;;;;;;4.68;1.08;;;;;;;15.96;58.03;99129.22;5091601;28;20043;-59
2022/05/15 05:03:02;;;;;;;5.38;1.40;;;;;;;16.08;58.51;99123.88;5091583;28;20048;-60
2022/05/15 05:05:47;;;;;;;1.80;1.02;;;;;;;16.24;58.40;99132.16;5090627;28;20143;-59
2022/05/15 05:08:32;;;;;;;3.58;1.27;;;;;;;16.51;57.91;99132.53;5097262;28;20391;-60
2022/05/15 05:11:17;;;;;;;3.65;1.40;;;;;;;16.45;57.69;99122.50;5098473;28;20466;-60
2022/05/15 05:14:02;;;;;;;3.88;1.20;;;;;;;16.55;57.00;99131.28;5099389;28;20423;-60
2022/05/15 05:16:46;;;;;;;2.42;1.35;;;;;;;16.54;59.48;99129.63;5085798;28;20071;-59
2022/05/15 05:19:31;;;;;;;5.72;1.13;;;;;;;16.68;59.85;99138.16;5098951;28;20101;-60
2022/05/15 05:22:16;;;;;;;3.22;1.20;;;;;;;16.99;58.30;99135.41;5097588;28;20105;-59
2022/05/15 05:25:01;;;;;;;6.95;2.10;;;;;;;17.09;59.20;99133.63;5098759;28;20036;-58
2022/05/15 05:27:46;;;;;;;2.33;1.45;;;;;;;16.96;59.14;99141.81;5098474;28;20471;-59
2022/05/15 05:30:31;;;;;;;4.00;2.00;;;;;;;16.86;60.15;99140.94;5098272;28;20048;-59
2022/05/15 05:33:16;;;;;;;4.55;2.10;;;;;;;16.58;61.35;99143.44;5098347;28;20040;-60
2022/05/15 05:36:01;;;;;;;6.32;1.92;;;;;;;16.52;61.56;99142.13;5097388;28;20040;-59
2022/05/15 05:38:45;;;;;;;4.00;2.20;;;;;;;16.33;62.34;99151.69;5097208;28;20036;-60
2022/05/15 05:41:30;;;;;;;3.35;2.00;;;;;;;16.36;62.26;99154.06;5098157;28;20047;-61
2022/05/15 05:44:15;;;;;;;3.35;2.05;;;;;;;16.30;62.81;99151.13;5082773;28;20447;-59
2022/05/15 05:46:59;;;;;;;3.15;2.28;;;;;;;16.38;62.44;99154.78;5097842;28;20036;-60
2022/05/15 05:49:44;;;;;;;3.28;2.22;;;;;;;16.26;63.35;99161.09;5097259;28;20459;-60
2022/05/15 05:52:29;;;;;;;3.97;2.50;;;;;;;16.25;63.66;99157.63;5096621;28;20060;-60
2022/05/15 05:55:17;;;;;;;4.57;2.33;;;;;;;16.18;63.96;99167.06;5098237;28;20040;-60
2022/05/15 05:58:02;;;;;;;4.28;2.38;;;;;;;16.40;64.66;99164.38;5098048;28;20044;-60
2022/05/15 06:00:47;;;;;;;3.83;2.72;;;;;;;16.68;63.78;99161.97;5098003;28;20036;-60
2022/05/15 06:06:35;;;;;;;3.92;2.60;;;;;;;16.63;64.77;99162.34;5097658;28;20040;-59
2022/05/15 06:09:21;;;;;;;3.03;2.17;;;;;;;16.98;63.45;99165.50;5097830;28;20036;-60
2022/05/15 06:12:06;;;;;;;5.10;2.40;;;;;;;17.05;62.88;99165.78;5096817;28;20135;-60
2022/05/15 06:14:52;;;;;;;5.70;2.13;;;;;;;17.17;63.03;99166.53;5096711;28;20044;-60
2022/05/15 06:17:37;;;;;;;3.50;2.47;;;;;;;17.24;62.55;99165.00;5097217;28;20044;-61
2022/05/15 06:20:22;;;;;;;5.00;2.45;;;;;;;17.33;62.21;99169.44;5094072;28;20031;-59
2022/05/15 06:23:07;;;;;;;3.42;2.10;;;;;;;17.61;61.46;99177.53;5093239;28;20150;-60
2022/05/15 06:25:52;;;;;;;6.88;2.55;;;;;;;17.87;60.69;99172.63;5093324;28;20040;-59
2022/05/15 06:28:36;;;;;;;4.07;2.42;;;;;;;18.26;59.24;99177.84;5094248;28;20051;-59
2022/05/15 06:31:21;;;;;;;3.78;2.10;;;;;;;18.61;57.49;99171.94;5094224;28;20407;-60
2022/05/15 06:34:06;;;;;;;5.78;2.15;;;;;;;18.81;56.84;99176.19;5093094;28;20032;-60
2022/05/15 06:36:51;;;;;;;4.90;2.33;;;;;;;18.61;57.34;99177.25;5093250;28;20037;-60
2022/05/15 06:39:36;;;;;;;5.90;2.33;;;;;;;18.66;57.61;99181.13;5093228;28;20043;-60
2022/05/15 06:42:20;;;;;;;3.70;2.00;;;;;;;18.76;56.88;99181.09;5094024;28;20032;-60
2022/05/15 06:45:10;;;;;;;4.35;2.38;;;;;;;18.61;57.25;99180.75;5079238;28;20097;-61
2022/05/15 06:47:55;;;;;;;4.63;2.33;;;;;;;18.91;57.17;99185.91;5092944;28;20074;-60
2022/05/15 06:50:39;;;;;;;3.92;2.20;;;;;;;18.76;57.17;99185.56;5092799;28;20040;-60
2022/05/15 06:53:24;;;;;;;3.65;2.25;;;;;;;18.95;56.69;99180.13;5078609;28;20047;-60
2022/05/15 06:59:13;;;;;;;3.80;2.30;;;;;;;19.64;55.10;99191.22;5093696;28;20044;-60
2022/05/15 07:01:58;;;;;;;4.43;2.08;;;;;;;20.28;52.38;99183.06;5072546;28;20068;-62
2022/05/15 07:04:43;;;;;;;6.10;2.55;;;;;;;20.21;52.65;99189.97;5073537;28;20056;-60
2022/05/15 07:07:28;;;;;;;3.17;2.10;;;;;;;20.66;51.75;99188.03;5072320;28;20072;-59
2022/05/15 07:10:13;;;;;;;6.40;2.60;;;;;;;20.84;51.09;99186.25;5073235;28;20486;-60
2022/05/15 07:12:57;;;;;;;5.70;2.83;;;;;;;20.88;51.02;99192.91;5058115;28;20444;-62
2022/05/15 07:15:42;;;;;;;4.82;2.80;;;;;;;20.56;52.39;99193.47;5074271;28;20048;-59
2022/05/15 07:18:27;;;;;;;6.25;2.67;;;;;;;20.75;51.67;99193.38;5075192;28;20072;-60
2022/05/15 07:21:12;;;;;;;8.27;2.55;;;;;;;21.13;51.27;99185.03;5086067;28;20036;-60
2022/05/15 07:23:57;;;;;;;4.65;2.60;;;;;;;21.33;49.72;99182.06;5071994;28;20043;-60
2022/05/15 07:26:44;;;;;;;7.43;2.30;;;;;;;21.70;49.39;99183.38;5071960;28;20036;-59
2022/05/15 07:29:29;;;;;;;3.90;2.55;;;;;;;22.03;47.36;99183.34;5071619;28;20121;-59
2022/05/15 07:32:14;;;;;;;6.10;2.50;;;;;;;22.45;47.74;99183.25;5072871;28;20070;-59
2022/05/15 07:34:58;;;;;;;4.63;2.10;;;;;;;22.77;45.57;99189.47;5080341;28;20044;-60
2022/05/15 07:37:43;;;;;;;5.00;1.83;;;;;;;23.13;41.26;99184.56;5092042;28;20036;-60
2022/05/15 07:40:28;;;;;;;2.22;1.60;;;;;;;22.96;41.76;99194.56;5091951;28;20791;-60
2022/05/15 07:43:13;;;;;;;7.20;2.10;;;;;;;22.45;41.90;99188.59;5093088;28;20036;-60
2022/05/15 07:45:58;;;;;;;3.33;2.13;;;;;;;22.67;43.52;99188.03;5091818;28;20352;-60
2022/05/15 07:48:43;;;;;;;7.30;1.17;;;;;;;23.05;36.78;99185.47;5091963;28;20036;-59
2022/05/15 07:51:29;;;;;;;4.35;1.40;;;;;;;23.20;35.98;99192.72;5093032;28;20047;-59
2022/05/15 07:54:15;;;;;;;2.17;0.90;;;;;;;23.12;34.02;99182.94;5106411;28;20043;-59
2022/05/15 07:57:01;;;;;;;4.85;1.90;;;;;;;23.46;38.77;99192.41;5093038;28;20040;-60
2022/05/15 07:59:45;;;;;;;4.05;1.67;;;;;;;24.15;36.82;99188.94;5093066;28;20070;-60
2022/05/15 08:02:30;;;;;;;2.85;1.02;;;;;;;24.16;33.87;99178.06;5092890;28;20062;-60
2022/05/15 08:08:22;;;;;;;3.88;1.17;;;;;;;24.00;31.30;99179.03;5091649;28;20463;-60
2022/05/15 08:11:07;;;;;;;1.65;0.90;;;;;;;24.42;29.27;99190.16;5091573;28;20052;-59
2022/05/15 08:13:52;;;;;;;6.03;1.38;;;;;;;25.19;30.04;99188.97;5092123;28;20048;-60
2022/05/15 08:16:38;;;;;;;5.80;1.30;;;;;;;25.36;32.41;99184.22;5091742;28;20043;-60
2022/05/15 08:25:29;;;;;;;3.35;1.30;;;;;;;26.24;31.40;99175.97;5091645;28;20138;-60
2022/05/15 08:28:16;;;;;;;3.47;1.13;;;;;;;25.78;31.02;99184.38;5092251;28;20039;-60
2022/05/15 08:31:02;;;;;;;3.20;1.55;;;;;;;27.05;33.16;99177.16;5091180;28;20098;-60
2022/05/15 08:33:48;;;;;;;2.63;1.40;;;;;;;27.28;32.50;99183.19;5091937;28;20486;-60
2022/05/15 08:36:33;;;;;;;4.05;1.02;;;;;;;26.38;29.30;99188.47;5092006;28;20044;-60
2022/05/15 08:39:18;;;;;;;4.72;1.27;;;;;;;27.35;32.02;99184.03;5076515;28;20040;-59
2022/05/15 08:42:20;;;;;;;3.10;1.38;;;;;;;27.48;31.35;99185.06;5091273;28;20035;-60
2022/05/15 08:45:13;;;;;;;3.28;1.27;;;;;;;26.96;27.70;99180.22;5092471;28;20363;-61
2022/05/15 08:48:04;;;;;;;5.43;1.90;;;;;;;26.49;28.97;99180.88;5076924;28;20081;-60
2022/05/15 08:50:49;;;;;;;;;;;;;;;26.20;29.22;99184.44;5091329;28;20044;-60
2022/05/15 08:53:38;;;;;;;1.67;1.02;;;;;;;27.31;27.58;99188.16;5090811;28;19916;-60
2022/05/15 08:56:23;;;;;;;8.43;1.35;;;;;;;26.98;27.69;99176.28;5092237;28;20060;-60
2022/05/15 08:59:19;;;;;;;2.40;0.98;;;;;;;28.19;26.60;99181.91;5092002;28;20064;-60
2022/05/15 09:02:08;;;;;;;4.90;1.10;;;;;;;27.73;29.42;99169.16;5077189;28;20093;-61
2022/05/15 09:04:54;;;;;;;3.78;1.17;;;;;;;28.51;25.75;99182.84;5091964;28;20115;-60
2022/05/15 09:08:04;;;;;;;4.78;1.10;;;;;;;28.54;25.72;99181.63;5092216;28;20028;-60
2022/05/15 09:11:03;;;;;;;5.07;1.30;;;;;;;28.56;26.65;99178.72;5090871;28;20044;-60
2022/05/15 09:13:57;;;;;;;2.78;0.80;;;;;;;28.10;24.93;99182.16;5076373;28;20056;-61
2022/05/15 09:16:55;;;;;;;3.70;1.10;;;;;;;28.06;25.47;99177.41;5091742;28;20040;-60
2022/05/15 09:19:40;;;;;;;7.63;1.00;;;;;;;27.96;28.63;99175.94;5090377;28;20445;-60
2022/05/15 09:22:30;;;;;;;2.17;0.77;;;;;;;28.61;24.95;99184.28;5090235;28;20040;-60
2022/05/15 09:25:21;;;;;;;2.00;1.10;;;;;;;28.61;23.95;99184.28;5090421;28;20040;-60
2022/05/15 09:28:12;;;;;;;2.58;1.00;;;;;;;28.18;25.71;99178.41;5089818;28;20040;-60
2022/05/15 09:31:04;;;;;;;5.05;1.10;;;;;;;28.51;24.88;99193.63;5090357;28;20451;-59
2022/05/15 09:33:55;;;;;;;1.77;0.77;;;;;;;28.27;25.13;99182.50;5091761;28;20043;-60
2022/05/15 09:36:43;;;;;;;2.10;0.77;;;;;;;28.82;23.96;99187.69;5071184;28;20484;-61
2022/05/15 09:39:50;;;;;;;1.77;0.90;;;;;;;27.99;24.85;99177.41;5071161;28;20039;-59
2022/05/15 09:45:54;;;;;;;2.25;0.75;;;;;;;27.91;25.06;99187.34;5071193;28;20110;-60
2022/05/15 09:49:21;;;;;;;5.03;0.82;;;;;;;28.53;23.65;99177.25;5071199;28;20468;-60
2022/05/15 09:52:18;;;;;;;4.70;1.08;;;;;;;28.97;24.37;99182.88;5070739;28;20387;-60
2022/05/15 09:55:21;;;;;;;1.67;0.70;;;;;;;29.70;24.42;99177.19;5072761;28;20040;-58
2022/05/15 09:58:18;;;;;;;3.80;1.00;;;;;;;29.60;23.76;99180.38;5073322;28;20052;-61
2022/05/15 10:01:22;;;;;;;4.38;0.90;;;;;;;30.33;22.88;99170.94;5074872;28;20044;-59
2022/05/15 10:04:19;;;;;;;1.95;1.00;;;;;;;29.78;23.20;99170.66;5074716;28;20082;-60
2022/05/15 10:07:08;;;;;;;1.58;0.85;;;;;;;30.10;23.65;99178.66;5074460;28;20036;-62
2022/05/15 10:09:52;;;;;;;2.55;1.00;;;;;;;29.36;24.32;99169.31;5074881;28;20119;-60
2022/05/15 10:12:39;;;;;;;2.70;1.35;;;;;;;30.61;24.29;99175.78;5074628;28;20040;-58
2022/05/15 10:15:26;;;;;;;1.30;0.77;;;;;;;30.97;23.20;99169.72;5087684;28;20554;-61
2022/05/15 10:18:17;;;;;;;5.15;1.02;;;;;;;30.74;22.45;99165.84;5074733;28;20040;-60
2022/05/15 10:21:03;;;;;;;2.17;0.90;;;;;;;31.07;22.85;99169.16;5074813;28;20040;-59
2022/05/15 10:24:04;;;;;;;1.88;0.77;;;;;;;31.07;21.70;99169.16;5088037;28;20041;-59
2022/05/15 10:26:58;;;;;;;3.92;0.73;;;;;;;31.83;21.44;99159.59;5074225;28;20043;-59
2022/05/15 10:30:08;;;;;;;4.70;1.27;;;;;;;30.53;23.29;99165.31;5073930;28;20122;-59
2022/05/15 10:33:01;;;;;;;4.57;0.98;;;;;;;30.37;24.04;99161.34;5086624;28;20525;-60
2022/05/15 10:35:56;;;;;;;1.65;1.10;;;;;;;30.90;23.61;99163.56;5102097;28;20105;-60
2022/05/15 10:39:04;;;;;;;7.13;1.65;;;;;;;29.75;23.20;99163.03;5108359;28;20043;-58
2022/05/15 10:42:01;;;;;;;2.45;1.27;;;;;;;29.50;25.02;99161.97;5093659;28;20387;-60
2022/05/15 10:44:53;;;;;;;2.08;1.20;;;;;;;30.31;23.53;99163.06;5094424;28;20043;-59
2022/05/15 10:47:49;;;;;;;3.53;0.90;;;;;;;32.29;20.97;99156.25;5094032;28;20036;-59
2022/05/15 10:50:52;;;;;;;3.53;1.15;;;;;;;32.52;22.20;99144.56;5094543;28;20037;-58
2022/05/15 10:57:21;;;;;;;;;;;;;;;31.42;22.36;99148.69;5078117;28;20052;-60
2022/05/15 11:00:16;;;;;;;2.30;1.00;;;;;;;30.07;22.63;99148.56;5094491;28;19920;-60
2022/05/15 11:03:35;;;;;;;4.72;0.90;;;;;;;28.56;24.54;99147.22;5093491;28;20070;-59
2022/05/15 11:06:29;;;;;;;2.78;1.20;;;;;;;29.90;23.01;99140.25;5093499;28;20052;-59
2022/05/15 11:09:29;;;;;;;2.25;0.70;;;;;;;30.39;21.99;99142.22;5093191;28;20036;-60
2022/05/15 11:12:47;;;;;;;2.13;0.75;;;;;;;30.11;22.08;99137.06;5092790;28;20092;-58
2022/05/15 11:15:56;;;;;;;2.60;0.95;;;;;;;31.33;20.98;99131.94;5070302;28;20052;-60
2022/05/15 11:18:56;;;;;;;2.78;0.70;;;;;;;31.60;20.57;99131.47;5093711;28;20050;-60
2022/05/15 11:22:11;;;;;;;3.53;0.88;;;;;;;30.57;22.16;99133.25;5093750;28;20043;-61
2022/05/15 11:25:04;;;;;;;5.88;0.70;;;;;;;31.06;21.77;99122.34;5093301;28;20036;-60
2022/05/15 11:27:53;;;;;;;5.20;0.95;;;;;;;31.21;22.38;99123.78;5093014;28;20123;-60
2022/05/15 11:30:42;;;;;;;4.00;0.85;;;;;;;31.51;21.88;99122.91;5091886;28;20055;-59
2022/05/15 11:33:48;;;;;;;2.70;0.70;;;;;;;31.33;21.68;99111.13;5093239;28;20105;-62
2022/05/15 11:36:38;;;;;;;2.85;1.35;;;;;;;31.12;21.67;99115.22;5077966;28;20119;-60
2022/05/15 11:39:25;;;;;;;3.20;0.95;;;;;;;30.57;22.78;99114.34;5093103;28;20623;-60
2022/05/15 11:42:17;;;;;;;2.75;0.88;;;;;;;31.77;21.12;99103.72;5093339;28;20055;-59
2022/05/15 11:45:28;;;;;;;2.45;1.10;;;;;;;31.62;22.24;99106.88;5092900;28;20040;-60
2022/05/15 11:48:22;;;;;;;2.60;1.10;;;;;;;31.55;21.23;99109.75;5077759;28;20032;-61
2022/05/15 11:51:13;;;;;;;5.18;1.02;;;;;;;31.53;22.09;99104.56;5093008;28;20121;-60
2022/05/15 11:54:07;;;;;;;4.30;1.10;;;;;;;31.65;24.35;99095.59;5077819;28;20044;-59
2022/05/15 11:56:56;;;;;;;1.90;1.08;;;;;;;33.60;22.22;99091.53;5092964;28;20067;-60
2022/05/15 11:59:54;;;;;;;2.50;1.38;;;;;;;32.97;21.21;99095.19;5092762;28;20053;-60
2022/05/15 12:02:50;;;;;;;4.03;1.27;;;;;;;33.94;20.86;99079.75;5091407;28;20043;-59
2022/05/15 12:06:03;;;;;;;3.85;0.90;;;;;;;33.19;20.75;99081.72;5092247;28;20082;-62
2022/05/15 12:09:16;;;;;;;5.40;1.15;;;;;;;31.61;22.17;99081.72;5091609;28;20061;-62
2022/05/15 12:12:38;;;;;;;2.03;0.93;;;;;;;29.22;24.06;99082.31;5092852;28;20036;-60
2022/05/15 12:15:35;;;;;;;2.20;1.38;;;;;;;29.89;23.89;99077.31;5091265;28;20436;-61
2022/05/15 12:18:32;;;;;;;1.80;0.80;;;;;;;29.87;23.94;99072.16;5090720;28;20043;-60
2022/05/15 12:21:23;;;;;;;1.60;0.70;;;;;;;30.06;23.54;99069.44;5092325;28;20126;-60
2022/05/15 12:24:29;;;;;;;1.77;0.80;;;;;;;31.38;25.82;99066.28;5092134;28;20035;-60
2022/05/15 12:27:18;;;;;;;2.35;0.90;;;;;;;32.96;22.11;99059.09;5091948;28;20117;-60
2022/05/15 12:30:14;;;;;;;2.40;0.80;;;;;;;32.28;20.31;99060.63;5092129;28;20356;-59
2022/05/15 12:33:07;;;;;;;1.70;0.80;;;;;;;31.70;22.09;99052.41;5076594;28;20038;-60
2022/05/15 12:35:52;;;;;;;4.55;1.00;;;;;;;31.42;22.02;99060.19;5091283;28;20040;-60
2022/05/15 12:38:36;;;;;;;1.73;0.75;;;;;;;33.11;23.33;99047.69;5090660;28;20169;-60
2022/05/15 12:41:25;;;;;;;2.22;0.73;;;;;;;31.28;21.58;99048.78;5090860;28;20089;-60
2022/05/15 12:44:11;;;;;;;1.05;0.68;;;;;;;31.65;21.91;99047.69;5075944;28;20044;-60
2022/05/15 12:47:00;;;;;;;1.58;0.77;;;;;;;32.00;22.71;99046.00;5100339;28;20047;-63
2022/05/15 12:49:46;;;;;;;1.63;0.60;;;;;;;32.55;22.48;99045.66;5091505;28;20522;-64
2022/05/15 12:52:33;;;;;;;5.00;1.00;;;;;;;32.08;22.20;99042.91;5077242;28;20054;-64
2022/05/15 12:55:29;;;;;;;2.13;0.95;;;;;;;31.99;22.01;99047.06;5104676;28;20032;-63
2022/05/15 12:58:30;;;;;;;1.77;0.70;;;;;;;31.52;21.48;99031.72;5091570;28;20471;-61
2022/05/15 13:01:16;;;;;;;2.08;0.88;;;;;;;31.73;23.58;99034.88;5091554;28;20108;-62
2022/05/15 13:04:04;;;;;;;2.65;0.80;;;;;;;31.50;23.11;99026.53;5090722;28;20089;-62
2022/05/15 13:06:54;;;;;;;1.90;0.73;;;;;;;33.05;21.07;99022.34;5113242;28;20051;-62
2022/05/15 13:09:39;;;;;;;2.50;0.80;;;;;;;33.44;21.00;99007.19;5112634;28;20051;-63
2022/05/15 13:12:24;;;;;;;2.15;0.80;;;;;;;33.01;21.32;99012.25;5096905;28;20432;-66
2022/05/15 13:15:10;;;;;;;3.17;1.00;;;;;;;31.63;22.66;99005.72;5096616;28;20050;-65
2022/05/15 13:17:58;;;;;;;2.58;0.90;;;;;;;29.54;24.16;99011.28;5112233;28;20453;-63
2022/05/15 13:20:49;;;;;;;1.80;0.95;;;;;;;30.18;23.19;99014.69;5111908;28;20455;-64
2022/05/15 13:23:41;;;;;;;1.10;0.70;;;;;;;30.30;23.96;99007.47;5110743;28;20062;-64
2022/05/15 13:26:37;;;;;;;3.08;1.08;;;;;;;29.46;24.35;99004.28;5110907;28;20062;-64
2022/05/15 13:29:25;;;;;;;7.45;0.75;;;;;;;30.29;23.17;99013.09;5100207;28;20054;-64
2022/05/15 13:32:13;;;;;;;2.58;0.63;;;;;;;29.73;23.39;99003.19;5115026;28;20544;-64
2022/05/15 13:34:58;;;;;;;3.13;0.80;;;;;;;30.19;23.30;99008.22;5107085;28;20483;-64
2022/05/15 13:37:48;;;;;;;4.53;0.98;;;;;;;31.32;21.73;99003.16;5095263;28;20048;-64
2022/05/15 13:43:38;;;;;;;2.45;0.70;;;;;;;30.83;21.28;98998.81;5094563;28;20036;-65
2022/05/15 13:46:26;;;;;;;2.92;0.63;;;;;;;30.55;20.73;99003.78;5095214;28;20051;-65